createdAt,value
2022-12-17T00:02:38.737Z,42.70
2022-12-17T00:05:21.346Z,45.50
2022-12-17T00:08:11.641Z,44.17
2022-12-17T00:10:53.592Z,43.00
2022-12-17T00:13:37.072Z,42.95
2022-12-17T00:16:22.976Z,43.53
2022-12-17T00:19:05.036Z,41.15
2022-12-17T00:21:46.994Z,43.03
2022-12-17T00:24:31.532Z,44.17
2022-12-17T00:27:13.543Z,42.22
2022-12-17T00:30:10.130Z,41.15
2022-12-17T00:32:52.101Z,45.15
2022-12-17T00:35:34.091Z,43.53
2022-12-17T00:38:16.165Z,42.35
2022-12-17T00:41:05.894Z,43.17
2022-12-17T00:43:47.870Z,40.50
2022-12-17T00:46:29.788Z,43.55
2022-12-17T00:49:11.816Z,40.88
2022-12-17T00:51:53.830Z,43.10
2022-12-17T00:54:35.939Z,40.70
2022-12-17T00:57:20.542Z,41.53
2022-12-17T01:00:02.536Z,40.85
2022-12-17T01:02:44.606Z,42.75
2022-12-17T01:05:27.637Z,40.28
2022-12-17T01:08:09.752Z,40.55
2022-12-17T01:10:52.693Z,41.42
2022-12-17T01:13:37.636Z,52.42
2022-12-17T01:16:20.313Z,52.50
2022-12-17T01:19:02.323Z,58.47
2022-12-17T01:21:44.353Z,56.58
2022-12-17T01:24:26.459Z,47.97
2022-12-17T01:27:08.390Z,45.35
2022-12-17T01:29:54.234Z,42.58
2022-12-17T01:32:36.151Z,43.25
2022-12-17T01:35:18.170Z,39.50
2022-12-17T01:38:00.707Z,39.88
2022-12-17T01:40:42.675Z,38.42
2022-12-17T01:43:27.022Z,37.60
2022-12-17T01:46:11.639Z,37.72
2022-12-17T01:49:02.995Z,39.63
2022-12-17T01:51:45.399Z,40.13
2022-12-17T01:54:27.687Z,37.90
2022-12-17T01:57:09.939Z,39.60
2022-12-17T01:59:57.889Z,37.17
2022-12-17T02:02:42.581Z,37.42
2022-12-17T02:05:24.655Z,37.63
2022-12-17T02:08:13.925Z,41.35
2022-12-17T02:11:00.868Z,39.95
2022-12-17T02:13:46.699Z,35.58
2022-12-17T02:16:31.707Z,36.88
2022-12-17T02:19:21.957Z,37.25
2022-12-17T02:22:09.356Z,37.33
2022-12-17T02:24:57.290Z,37.67
2022-12-17T02:27:42.243Z,38.03
2022-12-17T02:30:25.685Z,37.88
2022-12-17T02:33:08.563Z,36.53
2022-12-17T02:35:53.641Z,39.85
2022-12-17T02:38:37.360Z,35.85
2022-12-17T02:41:20.606Z,36.70
2022-12-17T02:44:05.581Z,41.30
2022-12-17T02:46:47.449Z,38.72
2022-12-17T02:49:29.390Z,37.25
2022-12-17T02:52:19.799Z,39.17
2022-12-17T02:55:01.624Z,40.33
2022-12-17T02:57:44.103Z,38.80
2022-12-17T03:00:30.629Z,39.30
2022-12-17T03:03:12.579Z,36.30
2022-12-17T03:05:54.671Z,35.88
2022-12-17T03:08:36.529Z,38.65
2022-12-17T03:11:21.205Z,35.17
2022-12-17T03:14:03.073Z,38.08
2022-12-17T03:16:47.974Z,37.22
2022-12-17T03:19:29.947Z,38.92
2022-12-17T03:22:11.900Z,38.58
2022-12-17T03:24:53.830Z,37.78
2022-12-17T03:27:35.711Z,37.17
2022-12-17T03:30:17.651Z,37.17
2022-12-17T03:33:02.114Z,37.17
2022-12-17T03:35:44.023Z,36.03
2022-12-17T03:38:26.338Z,37.60
2022-12-17T03:41:08.272Z,36.63
2022-12-17T03:43:50.105Z,36.40
2022-12-17T03:46:32.068Z,36.58
2022-12-17T03:49:16.600Z,39.08
2022-12-17T03:51:58.648Z,38.45
2022-12-17T03:54:40.753Z,38.13
2022-12-17T03:57:22.643Z,37.67
2022-12-17T04:00:04.523Z,35.75
2022-12-17T04:02:46.557Z,39.80
2022-12-17T04:05:31.364Z,39.53
2022-12-17T04:08:13.513Z,38.35
2022-12-17T04:10:55.368Z,35.88
2022-12-17T04:13:41.094Z,36.80
2022-12-17T04:16:23.545Z,37.15
2022-12-17T04:19:05.408Z,38.22
2022-12-17T04:21:50.121Z,38.25
2022-12-17T04:24:32.047Z,38.67
2022-12-17T04:27:13.928Z,39.97
2022-12-17T04:29:55.829Z,64.50
2022-12-17T04:32:37.717Z,49.33
2022-12-17T04:35:20.430Z,51.67
2022-12-17T04:38:05.364Z,57.58
2022-12-17T04:40:47.505Z,48.53
2022-12-17T04:43:29.428Z,42.97
2022-12-17T04:46:11.459Z,36.80
2022-12-17T04:48:53.424Z,33.17
2022-12-17T04:51:35.343Z,33.75
2022-12-17T04:54:19.961Z,31.75
2022-12-17T04:57:01.853Z,31.23
2022-12-17T04:59:43.691Z,33.20
2022-12-17T05:02:25.852Z,32.05
2022-12-17T05:05:07.860Z,30.58
2022-12-17T05:07:49.714Z,32.35
2022-12-17T05:10:34.216Z,35.20
2022-12-17T05:13:17.143Z,31.65
2022-12-17T05:15:59.067Z,32.03
2022-12-17T05:18:40.982Z,32.92
2022-12-17T05:21:23.205Z,31.90
2022-12-17T05:24:05.123Z,31.00
2022-12-17T05:26:49.542Z,31.65
2022-12-17T05:29:31.422Z,33.10
2022-12-17T05:32:13.417Z,31.92
2022-12-17T05:34:55.404Z,31.17
2022-12-17T05:37:39.636Z,28.83
2022-12-17T05:40:23.388Z,28.50
2022-12-17T05:43:13.090Z,29.55
2022-12-17T05:45:55.305Z,51.50
2022-12-17T05:48:37.166Z,32.88
2022-12-17T05:51:19.172Z,39.05
2022-12-17T05:54:01.065Z,35.67
2022-12-17T05:56:42.963Z,32.03
2022-12-17T05:59:27.411Z,31.63
2022-12-17T06:02:09.316Z,32.38
2022-12-17T06:04:51.234Z,32.15
2022-12-17T06:07:33.122Z,30.80
2022-12-17T06:10:14.965Z,30.05
2022-12-17T06:12:56.879Z,31.08
2022-12-17T06:15:41.624Z,30.70
2022-12-17T06:18:35.848Z,31.42
2022-12-17T06:21:17.724Z,32.53
2022-12-17T06:23:59.697Z,31.35
2022-12-17T06:26:41.551Z,33.75
2022-12-17T06:29:23.484Z,34.58
2022-12-17T06:32:07.947Z,34.30
2022-12-17T06:34:49.895Z,31.95
2022-12-17T06:37:31.760Z,35.13
2022-12-17T06:40:13.714Z,35.03
2022-12-17T06:42:55.550Z,35.42
2022-12-17T06:45:37.459Z,34.78
2022-12-17T06:48:23.829Z,31.65
2022-12-17T06:51:07.062Z,33.75
2022-12-17T06:53:48.955Z,32.25
2022-12-17T06:56:30.894Z,32.47
2022-12-17T06:59:12.796Z,30.23
2022-12-17T07:01:54.774Z,32.95
2022-12-17T07:04:39.355Z,31.23
2022-12-17T07:07:21.244Z,29.35
2022-12-17T07:10:03.123Z,33.33
2022-12-17T07:12:44.976Z,33.92
2022-12-17T07:15:26.843Z,33.25
2022-12-17T07:18:27.549Z,31.98
2022-12-17T07:21:12.039Z,30.85
2022-12-17T07:23:56.770Z,29.98
2022-12-17T07:26:38.672Z,30.85
2022-12-17T07:29:21.127Z,30.08
2022-12-17T07:32:03.108Z,29.83
2022-12-17T07:34:53.544Z,32.10
2022-12-17T07:37:38.017Z,33.90
2022-12-17T07:40:21.173Z,31.55
2022-12-17T07:43:03.052Z,30.77
2022-12-17T07:45:44.992Z,31.23
2022-12-17T07:48:27.343Z,30.63
2022-12-17T07:51:09.264Z,31.60
2022-12-17T07:53:53.744Z,30.90
2022-12-17T07:56:35.616Z,30.50
2022-12-17T07:59:17.471Z,30.63
2022-12-17T08:01:59.549Z,30.02
2022-12-17T08:04:41.571Z,29.42
2022-12-17T08:07:23.498Z,30.75
2022-12-17T08:10:07.955Z,29.80
2022-12-17T08:12:49.820Z,30.45
2022-12-17T08:15:31.747Z,29.85
2022-12-17T08:18:15.819Z,27.50
2022-12-17T08:20:57.723Z,29.05
2022-12-17T08:23:39.828Z,27.90
2022-12-17T08:26:24.340Z,29.48
2022-12-17T08:29:15.014Z,29.58
2022-12-17T08:31:56.882Z,27.50
2022-12-17T08:34:39.038Z,28.90
2022-12-17T08:37:20.939Z,29.13
2022-12-17T08:40:02.798Z,28.65
2022-12-17T08:42:47.264Z,28.25
2022-12-17T08:45:29.279Z,29.23
2022-12-17T08:48:17.984Z,27.80
2022-12-17T08:50:59.828Z,24.95
2022-12-17T08:53:42.562Z,24.80
2022-12-17T08:56:24.653Z,26.80
2022-12-17T08:59:09.209Z,27.80
2022-12-17T09:01:51.244Z,28.38
2022-12-17T09:04:36.144Z,27.10
2022-12-17T09:07:18.088Z,27.08
2022-12-17T09:10:00.206Z,27.63
2022-12-17T09:12:42.251Z,29.35
2022-12-17T09:15:26.941Z,28.48
2022-12-17T09:18:08.820Z,24.17
2022-12-17T09:20:50.729Z,28.30
2022-12-17T09:23:33.309Z,23.70
2022-12-17T09:26:16.004Z,26.63
2022-12-17T09:28:57.867Z,28.15
2022-12-17T09:31:51.116Z,30.00
2022-12-17T09:34:33.241Z,28.10
2022-12-17T09:37:15.154Z,27.10
2022-12-17T09:39:57.004Z,29.63
2022-12-17T09:42:43.338Z,25.37
2022-12-17T09:45:32.713Z,29.55
2022-12-17T09:48:21.796Z,26.33
2022-12-17T09:51:05.886Z,26.73
2022-12-17T09:53:51.774Z,21.70
2022-12-17T09:56:45.145Z,27.85
2022-12-17T09:59:34.250Z,28.30
2022-12-17T10:02:17.949Z,28.92
2022-12-17T10:05:03.283Z,28.02
2022-12-17T10:07:54.360Z,29.95
2022-12-17T10:10:38.797Z,28.92
2022-12-17T10:13:26.139Z,27.73
2022-12-17T10:16:08.121Z,26.88
2022-12-17T10:18:50.176Z,29.17
2022-12-17T10:21:34.864Z,28.20
2022-12-17T10:24:20.459Z,26.45
2022-12-17T10:27:04.012Z,27.52
2022-12-17T10:29:48.477Z,27.65
2022-12-17T10:32:36.019Z,25.77
2022-12-17T10:35:23.002Z,23.83
2022-12-17T10:38:10.261Z,24.63
2022-12-17T10:40:52.220Z,23.77
2022-12-17T10:43:42.395Z,21.35
2022-12-17T10:46:24.395Z,24.05
2022-12-17T10:49:11.208Z,25.13
2022-12-17T10:51:53.646Z,24.48
2022-12-17T10:54:46.978Z,25.88
2022-12-17T10:57:46.347Z,13.88
2022-12-17T11:00:41.925Z,16.15
2022-12-17T11:03:42.287Z,21.33
2022-12-17T11:06:24.453Z,24.60
2022-12-17T11:09:06.330Z,23.00
2022-12-17T11:11:50.764Z,22.63
2022-12-17T11:14:32.739Z,21.80
2022-12-17T11:17:17.958Z,21.55
2022-12-17T11:20:04.081Z,19.38
2022-12-17T11:22:51.883Z,21.80
2022-12-17T11:25:43.104Z,20.45
2022-12-17T11:28:32.320Z,22.40
2022-12-17T11:31:22.826Z,17.45
2022-12-17T11:34:06.753Z,18.13
2022-12-17T11:36:54.828Z,16.23
2022-12-17T11:39:42.441Z,15.05
2022-12-17T11:42:31.779Z,16.48
2022-12-17T11:45:20.705Z,17.60
2022-12-17T11:48:07.724Z,10.85
2022-12-17T11:51:05.954Z,13.00
2022-12-17T11:54:01.567Z,13.98
2022-12-17T11:56:48.057Z,13.15
2022-12-17T11:59:37.788Z,14.02
2022-12-17T12:02:33.603Z,13.23
2022-12-17T12:05:27.276Z,13.75
2022-12-17T12:08:15.037Z,8.73
2022-12-17T12:11:04.225Z,15.55
2022-12-17T12:13:53.072Z,23.67
2022-12-17T12:16:43.534Z,14.95
2022-12-17T12:19:32.238Z,11.40
2022-12-17T12:22:17.711Z,13.45
2022-12-17T12:25:14.552Z,10.20
2022-12-17T12:28:03.616Z,12.80
2022-12-17T12:30:50.477Z,11.38
2022-12-17T12:33:38.008Z,7.88
2022-12-17T12:36:25.808Z,11.52
2022-12-17T12:39:09.644Z,11.40
2022-12-17T12:41:56.818Z,7.45
2022-12-17T12:44:49.472Z,7.45
2022-12-17T12:47:37.063Z,7.78
2022-12-17T12:50:27.552Z,10.80
2022-12-17T12:53:12.601Z,5.72
2022-12-17T12:55:55.621Z,9.40
2022-12-17T12:58:42.640Z,8.88
2022-12-17T13:01:25.112Z,11.10
2022-12-17T13:04:09.225Z,10.05
2022-12-17T13:06:45.571Z,11.82
2022-12-17T13:09:35.066Z,11.30
2022-12-17T13:12:22.264Z,11.02
2022-12-17T13:14:56.615Z,10.98
2022-12-17T13:17:35.624Z,10.67
2022-12-17T13:20:24.885Z,11.30
2022-12-17T13:22:56.039Z,9.20
2022-12-17T13:25:28.125Z,10.85
2022-12-17T13:27:57.641Z,10.40
2022-12-17T13:30:34.493Z,9.97
2022-12-17T13:33:25.632Z,9.40
2022-12-17T13:36:04.041Z,8.90
2022-12-17T13:38:38.650Z,22.45
2022-12-17T13:41:14.058Z,12.07
2022-12-17T13:43:47.342Z,12.68
2022-12-17T13:46:22.176Z,15.63
2022-12-17T13:48:56.531Z,10.48
2022-12-17T13:51:27.494Z,9.55
2022-12-17T13:53:58.854Z,10.35
2022-12-17T13:56:33.226Z,11.70
2022-12-17T13:59:08.754Z,10.60
2022-12-17T14:01:47.314Z,10.45
2022-12-17T14:04:27.506Z,10.23
2022-12-17T14:06:59.185Z,10.80
2022-12-17T14:09:34.932Z,11.40
2022-12-17T14:12:20.888Z,12.35
2022-12-17T14:14:52.376Z,8.90
2022-12-17T14:17:24.270Z,11.32
2022-12-17T14:19:59.978Z,9.90
2022-12-17T14:22:36.186Z,10.60
2022-12-17T14:25:10.843Z,16.33
2022-12-17T14:27:43.875Z,11.68
2022-12-17T14:30:25.348Z,11.13
2022-12-17T14:32:55.000Z,11.25
2022-12-17T14:35:29.819Z,11.02
2022-12-17T14:37:59.445Z,10.48
2022-12-17T14:40:29.344Z,10.38
2022-12-17T14:43:03.719Z,10.90
2022-12-17T14:45:53.534Z,12.52
2022-12-17T14:48:43.069Z,11.50
2022-12-17T14:51:23.910Z,10.82
2022-12-17T14:53:53.393Z,12.25
2022-12-17T14:56:25.820Z,11.50
2022-12-17T14:58:57.835Z,13.00
2022-12-17T15:01:27.466Z,13.60
2022-12-17T15:03:57.093Z,11.82
2022-12-17T15:06:27.028Z,11.73
2022-12-17T15:08:56.453Z,12.35
2022-12-17T15:11:26.082Z,12.82
2022-12-17T15:13:58.423Z,12.70
2022-12-17T15:16:28.202Z,13.15
2022-12-17T15:18:57.695Z,13.00
2022-12-17T15:21:27.751Z,14.60
2022-12-17T15:23:57.255Z,13.57
2022-12-17T15:26:26.747Z,14.88
2022-12-17T15:28:58.854Z,16.30
2022-12-17T15:31:32.042Z,13.90
2022-12-17T15:34:04.554Z,14.57
2022-12-17T15:36:34.688Z,13.05
2022-12-17T15:39:06.227Z,13.73
2022-12-17T15:41:48.172Z,13.60
2022-12-17T15:44:20.209Z,14.40
2022-12-17T15:46:49.827Z,15.15
2022-12-17T15:49:19.320Z,14.38
2022-12-17T15:51:48.902Z,14.20
2022-12-17T15:54:18.404Z,16.35
2022-12-17T15:56:54.823Z,13.35
2022-12-17T15:59:27.568Z,14.80
2022-12-17T16:01:57.162Z,14.82
2022-12-17T16:04:26.701Z,14.30
2022-12-17T16:06:56.190Z,16.20
2022-12-17T16:09:28.059Z,14.98
2022-12-17T16:11:57.887Z,14.95
2022-12-17T16:14:29.964Z,15.35
2022-12-17T16:16:59.410Z,15.82
2022-12-17T16:19:29.327Z,15.80
2022-12-17T16:21:59.094Z,15.05
2022-12-17T16:24:28.522Z,15.40
2022-12-17T16:27:04.105Z,13.80
2022-12-17T16:29:36.854Z,15.77
2022-12-17T16:32:06.597Z,12.75
2022-12-17T16:34:36.060Z,13.45
2022-12-17T16:37:06.854Z,12.82
2022-12-17T16:39:36.348Z,13.65
2022-12-17T16:42:06.245Z,13.25
2022-12-17T16:44:39.466Z,13.73
2022-12-17T16:47:09.088Z,13.18
2022-12-17T16:49:38.578Z,13.07
2022-12-17T16:52:08.092Z,13.38
2022-12-17T16:54:37.560Z,14.48
2022-12-17T16:57:06.961Z,14.30
2022-12-17T16:59:39.077Z,15.02
2022-12-17T17:02:08.889Z,14.65
2022-12-17T17:04:39.280Z,13.80
2022-12-17T17:07:08.824Z,14.20
2022-12-17T17:09:38.274Z,13.52
2022-12-17T17:12:09.328Z,13.82
2022-12-17T17:14:43.856Z,14.05
2022-12-17T17:17:13.909Z,15.60
2022-12-17T17:19:43.343Z,14.27
2022-12-17T17:22:12.826Z,13.95
2022-12-17T17:24:42.208Z,15.05
2022-12-17T17:27:12.329Z,17.40
2022-12-17T17:29:44.356Z,14.05
2022-12-17T17:32:14.224Z,14.82
2022-12-17T17:34:43.838Z,15.27
2022-12-17T17:37:13.600Z,14.50
2022-12-17T17:39:43.147Z,15.57
2022-12-17T17:42:12.622Z,14.55
2022-12-17T17:44:44.932Z,15.02
2022-12-17T17:47:14.410Z,15.95
2022-12-17T17:49:43.891Z,15.75
2022-12-17T17:52:13.400Z,17.27
2022-12-17T17:54:43.363Z,16.70
2022-12-17T17:57:13.080Z,17.63
2022-12-17T17:59:45.473Z,15.70
2022-12-17T18:02:14.973Z,16.05
2022-12-17T18:04:44.494Z,16.45
2022-12-17T18:07:29.794Z,17.50
2022-12-17T18:09:59.735Z,16.30
2022-12-17T18:12:41.892Z,16.42
2022-12-17T18:15:16.213Z,16.95
2022-12-17T18:17:47.135Z,18.55
2022-12-17T18:20:16.990Z,18.90
2022-12-17T18:22:47.048Z,19.73
2022-12-17T18:25:17.698Z,16.52
2022-12-17T18:27:47.360Z,16.38
2022-12-17T18:30:19.601Z,17.42
2022-12-17T18:32:49.530Z,17.50
2022-12-17T18:35:19.255Z,18.33
2022-12-17T18:37:48.743Z,18.85
2022-12-17T18:40:18.307Z,16.90
2022-12-17T18:43:00.271Z,18.20
2022-12-17T18:45:32.360Z,17.15
2022-12-17T18:48:01.823Z,18.25
2022-12-17T18:50:31.375Z,20.70
2022-12-17T18:53:00.816Z,15.50
2022-12-17T18:55:30.378Z,14.23
2022-12-17T18:58:01.591Z,15.40
2022-12-17T19:00:33.750Z,14.02
2022-12-17T19:03:04.477Z,14.32
2022-12-17T19:05:33.995Z,15.32
2022-12-17T19:08:03.480Z,15.57
2022-12-17T19:10:32.937Z,16.45
2022-12-17T19:13:02.360Z,15.35
2022-12-17T19:15:34.606Z,15.73
2022-12-17T19:18:04.064Z,16.50
2022-12-17T19:20:33.538Z,16.77
2022-12-17T19:23:02.952Z,16.00
2022-12-17T19:25:32.349Z,16.77
2022-12-17T19:28:01.782Z,15.38
2022-12-17T19:30:33.745Z,16.70
2022-12-17T19:33:10.395Z,18.17
2022-12-17T19:35:40.080Z,18.55
2022-12-17T19:38:09.540Z,17.83
2022-12-17T19:40:39.043Z,20.95
2022-12-17T19:43:08.963Z,20.80
2022-12-17T19:45:41.091Z,19.80
2022-12-17T19:48:14.553Z,18.55
2022-12-17T19:50:44.041Z,21.23
2022-12-17T19:53:13.642Z,19.80
2022-12-17T19:55:45.179Z,22.08
2022-12-17T19:58:14.598Z,22.98
2022-12-17T20:00:46.761Z,26.42
2022-12-17T20:03:16.623Z,24.77
2022-12-17T20:05:47.479Z,25.58
2022-12-17T20:08:22.171Z,26.05
2022-12-17T20:10:51.942Z,23.70
2022-12-17T20:13:21.324Z,23.73
2022-12-17T20:16:01.967Z,22.45
2022-12-17T20:18:32.406Z,23.55
2022-12-17T20:21:05.941Z,22.48
2022-12-17T20:23:35.768Z,23.75
2022-12-17T20:26:05.977Z,21.55
2022-12-17T20:28:35.923Z,23.80
2022-12-17T20:31:08.665Z,21.80
2022-12-17T20:33:38.637Z,21.30
2022-12-17T20:36:08.996Z,22.52
2022-12-17T20:38:39.248Z,22.45
2022-12-17T20:41:12.711Z,22.80
2022-12-17T20:43:42.589Z,22.63
2022-12-17T20:46:14.906Z,21.83
2022-12-17T20:48:46.535Z,21.42
2022-12-17T20:51:17.499Z,22.13
2022-12-17T20:53:47.515Z,22.67
2022-12-17T20:56:19.222Z,21.27
2022-12-17T20:58:48.859Z,22.17
2022-12-17T21:01:23.334Z,21.65
2022-12-17T21:03:53.793Z,21.52
2022-12-17T21:06:25.166Z,21.52
2022-12-17T21:08:56.067Z,19.75
2022-12-17T21:11:27.238Z,20.10
2022-12-17T21:13:57.469Z,21.48
2022-12-17T21:16:32.603Z,21.65
2022-12-17T21:19:03.883Z,17.95
2022-12-17T21:21:35.855Z,21.00
2022-12-17T21:24:05.494Z,19.25
2022-12-17T21:26:36.367Z,19.40
2022-12-17T21:29:07.976Z,18.70
2022-12-17T21:31:41.819Z,18.63
2022-12-17T21:34:14.763Z,20.30
2022-12-17T21:36:44.949Z,19.88
2022-12-17T21:39:16.127Z,19.20
2022-12-17T21:42:06.803Z,17.33
2022-12-17T21:44:36.311Z,18.70
2022-12-17T21:47:08.491Z,20.27
2022-12-17T21:49:37.901Z,18.42
2022-12-17T21:52:08.187Z,19.23
2022-12-17T21:54:40.862Z,19.05
2022-12-17T21:57:10.343Z,20.02
2022-12-17T21:59:39.842Z,19.30
2022-12-17T22:02:12.546Z,17.48
2022-12-17T22:04:42.562Z,18.85
2022-12-17T22:07:12.151Z,20.73
2022-12-17T22:10:18.123Z,19.15
2022-12-17T22:12:47.942Z,18.85
2022-12-17T22:15:17.416Z,17.00
2022-12-17T22:17:50.113Z,17.58
2022-12-17T22:20:19.652Z,18.25
2022-12-17T22:22:49.169Z,18.15
2022-12-17T22:25:19.124Z,17.92
2022-12-17T22:27:48.725Z,17.30
2022-12-17T22:30:32.066Z,17.00
2022-12-17T22:33:08.558Z,19.30
2022-12-17T22:39:18.464Z,16.05
2022-12-17T22:43:49.865Z,17.20
2022-12-17T22:44:30.915Z,16.95
2022-12-17T22:44:51.918Z,17.25
2022-12-17T22:47:22.687Z,14.98
2022-12-17T22:49:54.701Z,15.80
2022-12-17T22:52:24.767Z,16.08
2022-12-17T22:54:54.489Z,16.83
2022-12-17T22:57:36.847Z,15.77
2022-12-17T23:00:11.064Z,16.98
2022-12-17T23:02:40.741Z,16.60
2022-12-17T23:05:13.023Z,16.02
2022-12-17T23:07:42.395Z,17.67
2022-12-17T23:10:12.633Z,16.40
2022-12-17T23:12:54.933Z,17.30
2022-12-17T23:15:27.634Z,16.55
2022-12-17T23:17:59.815Z,15.82
2022-12-17T23:20:34.516Z,18.10
2022-12-17T23:23:03.989Z,17.50
2022-12-17T23:25:33.640Z,16.67
2022-12-17T23:28:03.074Z,14.65
2022-12-17T23:30:32.503Z,16.40
2022-12-17T23:33:01.943Z,16.48
2022-12-17T23:35:34.286Z,14.93
2022-12-17T23:38:03.750Z,15.98
2022-12-17T23:40:33.175Z,15.10
2022-12-17T23:43:02.819Z,14.90
2022-12-17T23:45:32.316Z,15.07
2022-12-17T23:48:01.703Z,14.98
2022-12-17T23:50:33.727Z,14.68
2022-12-17T23:53:03.075Z,13.20
2022-12-17T23:55:32.499Z,14.05
2022-12-17T23:58:01.893Z,13.50
